createdAt,value
2023-02-12T00:00:48.033Z,-1.00
2023-02-12T00:03:14.752Z,-1.01
2023-02-12T00:05:41.861Z,-1.02
2023-02-12T00:08:11.302Z,-0.96
2023-02-12T00:10:43.204Z,-1.00
2023-02-12T00:13:11.330Z,-0.96
2023-02-12T00:15:43.106Z,-0.81
2023-02-12T00:18:10.407Z,-0.84
2023-02-12T00:20:38.009Z,-0.92
2023-02-12T00:23:05.455Z,-0.99
2023-02-12T00:25:32.408Z,-0.96
2023-02-12T00:27:59.110Z,-1.20
2023-02-12T00:30:25.935Z,-1.23
2023-02-12T00:32:52.554Z,-1.24
2023-02-12T00:35:19.156Z,-1.18
2023-02-12T00:37:45.700Z,-1.27
2023-02-12T00:40:12.743Z,-1.10
2023-02-12T00:42:39.372Z,-0.94
2023-02-12T00:45:06.248Z,-0.95
2023-02-12T00:47:32.858Z,-0.90
2023-02-12T00:49:59.850Z,-0.95
2023-02-12T00:52:26.434Z,-0.92
2023-02-12T00:54:53.040Z,-0.95
2023-02-12T00:57:19.622Z,-0.80
2023-02-12T00:59:46.175Z,-0.75
2023-02-12T01:02:12.833Z,-0.93
2023-02-12T01:04:39.464Z,-0.82
2023-02-12T01:07:06.077Z,-0.81
2023-02-12T01:09:32.794Z,-0.82
2023-02-12T01:11:59.413Z,-0.88
2023-02-12T01:14:26.013Z,-0.81
2023-02-12T01:16:52.588Z,-1.06
2023-02-12T01:19:19.170Z,-0.98
2023-02-12T01:21:45.810Z,-1.07
2023-02-12T01:24:12.485Z,-1.08
2023-02-12T01:26:39.126Z,-1.21
2023-02-12T01:29:07.636Z,-1.28
2023-02-12T01:31:38.542Z,-1.26
2023-02-12T01:34:06.820Z,-1.34
2023-02-12T01:36:33.835Z,-1.48
2023-02-12T01:39:02.811Z,-1.43
2023-02-12T01:41:33.483Z,-1.45
2023-02-12T01:44:19.681Z,-1.52
2023-02-12T01:46:48.951Z,-1.63
2023-02-12T01:49:29.410Z,-1.57
2023-02-12T01:52:02.735Z,-1.74
2023-02-12T01:54:30.003Z,-1.78
2023-02-12T01:56:56.791Z,-1.74
2023-02-12T01:59:24.584Z,-1.78
2023-02-12T02:01:51.305Z,-1.80
2023-02-12T02:04:23.696Z,-1.83
2023-02-12T02:06:58.395Z,-2.04
2023-02-12T02:09:26.409Z,-2.01
2023-02-12T02:12:11.686Z,-1.97
2023-02-12T02:14:40.249Z,-2.11
2023-02-12T02:17:28.042Z,-2.01
2023-02-12T02:20:28.385Z,-2.08
2023-02-12T02:23:07.309Z,-2.14
2023-02-12T02:25:57.481Z,-2.14
2023-02-12T02:29:04.736Z,-2.07
2023-02-12T02:31:37.472Z,-2.03
2023-02-12T02:34:10.509Z,-2.15
2023-02-12T02:37:19.619Z,-2.19
2023-02-12T02:39:46.264Z,-2.19
2023-02-12T02:42:37.569Z,-2.10
2023-02-12T02:45:10.064Z,-2.05
2023-02-12T02:48:15.859Z,-2.07
2023-02-12T02:50:47.741Z,-2.02
2023-02-12T02:53:29.853Z,-2.11
2023-02-12T02:56:01.559Z,-2.15
2023-02-12T02:58:35.831Z,-1.86
2023-02-12T03:01:21.197Z,-1.77
2023-02-12T03:03:59.066Z,-1.69
2023-02-12T03:06:47.089Z,-1.53
2023-02-12T03:09:34.868Z,-1.37
2023-02-12T03:12:06.319Z,-1.34
2023-02-12T03:14:39.592Z,-1.42
2023-02-12T03:17:13.926Z,-1.31
2023-02-12T03:19:46.745Z,-1.05
2023-02-12T03:22:23.292Z,-1.06
2023-02-12T03:24:54.251Z,-1.03
2023-02-12T03:27:33.849Z,-0.98
2023-02-12T03:30:01.660Z,-0.89
2023-02-12T03:32:28.323Z,-0.84
2023-02-12T03:35:25.426Z,-0.89
2023-02-12T03:38:07.421Z,-0.66
2023-02-12T03:40:51.201Z,-1.13
2023-02-12T03:43:28.493Z,-1.17
2023-02-12T03:46:04.645Z,-0.70
2023-02-12T03:48:44.076Z,-0.73
2023-02-12T03:51:29.169Z,-0.59
2023-02-12T03:53:57.544Z,-0.65
2023-02-12T03:56:37.816Z,-0.69
2023-02-12T03:59:05.603Z,-0.94
2023-02-12T04:01:34.118Z,-0.88
2023-02-12T04:04:05.507Z,-0.90
2023-02-12T04:06:32.252Z,-0.93
2023-02-12T04:09:03.475Z,-1.01
2023-02-12T04:11:44.104Z,-0.89
2023-02-12T04:14:14.426Z,-0.93
2023-02-12T04:16:51.920Z,-0.79
2023-02-12T04:19:28.002Z,-0.79
2023-02-12T04:22:36.296Z,-0.58
2023-02-12T04:25:15.011Z,-0.49
2023-02-12T04:27:52.506Z,-0.47
2023-02-12T04:30:29.115Z,-0.35
2023-02-12T04:33:02.073Z,-0.44
2023-02-12T04:35:36.505Z,-0.38
2023-02-12T04:38:06.149Z,-0.34
2023-02-12T04:40:33.100Z,-0.45
2023-02-12T04:42:59.834Z,-0.39
2023-02-12T04:45:29.690Z,-0.35
2023-02-12T04:47:57.081Z,-0.35
2023-02-12T04:50:23.899Z,-0.50
2023-02-12T04:52:51.857Z,-0.30
2023-02-12T04:55:19.166Z,-0.20
2023-02-12T04:57:45.930Z,-0.18
2023-02-12T05:00:15.043Z,-0.22
2023-02-12T05:02:41.870Z,-0.51
2023-02-12T05:05:08.718Z,-0.55
2023-02-12T05:07:35.542Z,-0.79
2023-02-12T05:10:02.322Z,-0.20
2023-02-12T05:12:28.984Z,-0.57
2023-02-12T05:14:55.791Z,-0.51
2023-02-12T05:17:23.761Z,-0.19
2023-02-12T05:19:50.596Z,-0.22
2023-02-12T05:22:17.980Z,-0.15
2023-02-12T05:24:44.848Z,-0.09
2023-02-12T05:27:11.602Z,-0.26
2023-02-12T05:29:38.393Z,-0.33
2023-02-12T05:32:06.938Z,-0.24
2023-02-12T05:34:34.416Z,-0.26
2023-02-12T05:37:01.082Z,-0.28
2023-02-12T05:39:27.806Z,-0.31
2023-02-12T05:41:54.622Z,-0.26
2023-02-12T05:44:21.358Z,-0.33
2023-02-12T05:46:48.114Z,-0.45
2023-02-12T05:49:14.838Z,-0.55
2023-02-12T05:51:42.046Z,-0.65
2023-02-12T05:54:08.863Z,-0.70
2023-02-12T05:56:38.057Z,-0.91
2023-02-12T05:59:12.489Z,-0.89
2023-02-12T06:01:43.117Z,-0.98
2023-02-12T06:04:24.599Z,-0.94
2023-02-12T06:06:52.776Z,-0.82
2023-02-12T06:09:19.779Z,-0.73
2023-02-12T06:11:46.399Z,-0.69
2023-02-12T06:14:16.016Z,-0.67
2023-02-12T06:16:46.754Z,-0.68
2023-02-12T06:19:13.487Z,-0.74
2023-02-12T06:21:40.715Z,-0.71
2023-02-12T06:24:07.604Z,-1.04
2023-02-12T06:26:34.279Z,-0.80
2023-02-12T06:29:01.694Z,-1.08
2023-02-12T06:31:33.766Z,-0.76
2023-02-12T06:34:02.816Z,-0.80
2023-02-12T06:36:30.169Z,-1.21
2023-02-12T06:38:56.953Z,-1.19
2023-02-12T06:41:24.377Z,-0.82
2023-02-12T06:43:51.422Z,-1.19
2023-02-12T06:46:18.234Z,-1.08
2023-02-12T06:48:45.306Z,-0.84
2023-02-12T06:51:15.130Z,-0.75
2023-02-12T06:53:42.176Z,-1.00
2023-02-12T06:56:13.686Z,-0.66
2023-02-12T06:58:42.176Z,-0.68
2023-02-12T07:01:13.468Z,-0.60
2023-02-12T07:03:42.180Z,-0.75
2023-02-12T07:06:11.897Z,-0.75
2023-02-12T07:08:38.998Z,-1.36
2023-02-12T07:11:06.245Z,-0.63
2023-02-12T07:13:35.042Z,-0.68
2023-02-12T07:16:09.502Z,-0.99
2023-02-12T07:18:37.315Z,-0.49
2023-02-12T07:21:05.861Z,-0.57
2023-02-12T07:23:33.364Z,-0.27
2023-02-12T07:26:13.533Z,-0.17
2023-02-12T07:28:43.961Z,-0.10
2023-02-12T07:31:15.097Z,-0.26
2023-02-12T07:33:42.919Z,-0.31
2023-02-12T07:36:13.170Z,-0.54
2023-02-12T07:38:40.196Z,-0.65
2023-02-12T07:41:12.506Z,-0.24
2023-02-12T07:43:44.367Z,-0.33
2023-02-12T07:46:20.660Z,-0.49
2023-02-12T07:48:48.228Z,-0.54
2023-02-12T07:51:19.410Z,-0.79
2023-02-12T07:53:47.038Z,-0.75
2023-02-12T07:56:25.611Z,-0.61
2023-02-12T07:58:53.601Z,-0.54
2023-02-12T08:01:21.755Z,-0.34
2023-02-12T08:03:50.731Z,-0.42
2023-02-12T08:06:20.370Z,-0.29
2023-02-12T08:08:47.908Z,-0.38
2023-02-12T08:11:15.854Z,-0.29
2023-02-12T08:13:42.885Z,-0.19
2023-02-12T08:16:15.825Z,-0.41
2023-02-12T08:18:43.511Z,-0.28
2023-02-12T08:21:16.525Z,0.02
2023-02-12T08:23:43.090Z,0.01
2023-02-12T08:26:14.176Z,-0.06
2023-02-12T08:28:46.652Z,-0.11
2023-02-12T08:31:17.290Z,-0.29
2023-02-12T08:33:45.690Z,-0.21
2023-02-12T08:36:15.616Z,-0.47
2023-02-12T08:38:47.024Z,-0.54
2023-02-12T08:41:22.345Z,-0.55
2023-02-12T08:43:50.000Z,-0.45
2023-02-12T08:46:21.858Z,-0.43
2023-02-12T08:48:48.595Z,-0.38
2023-02-12T08:51:20.640Z,-0.44
2023-02-12T08:53:51.477Z,-0.46
2023-02-12T08:56:18.888Z,-0.35
2023-02-12T08:58:48.795Z,-0.28
2023-02-12T09:01:26.194Z,-0.25
2023-02-12T09:03:56.623Z,-0.25
2023-02-12T09:06:25.300Z,-0.32
2023-02-12T09:08:55.868Z,-0.21
2023-02-12T09:11:26.709Z,-0.08
2023-02-12T09:13:56.020Z,0.08
2023-02-12T09:16:22.795Z,-0.18
2023-02-12T09:18:49.398Z,-0.78
2023-02-12T09:21:22.191Z,-0.09
2023-02-12T09:23:49.422Z,-0.07
2023-02-12T09:26:20.857Z,-0.06
2023-02-12T09:28:49.835Z,0.02
2023-02-12T09:31:21.058Z,-0.20
2023-02-12T09:33:51.693Z,0.06
2023-02-12T09:36:21.032Z,0.27
2023-02-12T09:38:48.843Z,0.50
2023-02-12T09:41:52.840Z,0.63
2023-02-12T09:44:28.668Z,0.56
2023-02-12T09:47:15.463Z,0.50
2023-02-12T09:49:48.822Z,0.83
2023-02-12T09:52:22.499Z,0.63
2023-02-12T09:54:50.404Z,0.47
2023-02-12T09:57:34.645Z,0.79
2023-02-12T10:00:24.925Z,0.40
2023-02-12T10:02:53.802Z,0.13
2023-02-12T10:05:27.196Z,1.06
2023-02-12T10:08:06.023Z,0.96
2023-02-12T10:10:52.561Z,1.31
2023-02-12T10:13:26.518Z,1.20
2023-02-12T10:16:16.941Z,0.75
2023-02-12T10:18:52.527Z,1.12
2023-02-12T10:21:46.354Z,0.36
2023-02-12T10:24:18.946Z,1.37
2023-02-12T10:26:53.141Z,1.51
2023-02-12T10:29:26.062Z,1.75
2023-02-12T10:32:00.707Z,1.46
2023-02-12T10:34:33.496Z,1.87
2023-02-12T10:37:10.436Z,1.88
2023-02-12T10:39:42.593Z,1.51
2023-02-12T10:42:18.534Z,1.79
2023-02-12T10:44:46.160Z,1.92
2023-02-12T10:47:20.724Z,1.88
2023-02-12T10:49:55.969Z,1.79
2023-02-12T10:52:37.876Z,2.16
2023-02-12T10:55:24.868Z,2.09
2023-02-12T10:57:51.973Z,2.23
2023-02-12T11:00:26.396Z,2.50
2023-02-12T11:03:06.790Z,2.54
2023-02-12T11:05:36.180Z,1.86
2023-02-12T11:08:04.645Z,2.38
2023-02-12T11:10:40.365Z,2.44
2023-02-12T11:13:22.474Z,2.27
2023-02-12T11:15:49.769Z,2.83
2023-02-12T11:18:33.055Z,2.73
2023-02-12T11:21:05.323Z,3.43
2023-02-12T11:23:33.338Z,3.34
2023-02-12T11:26:04.770Z,3.09
2023-02-12T11:28:35.208Z,3.47
2023-02-12T11:31:10.596Z,3.53
2023-02-12T11:33:38.989Z,3.70
2023-02-12T11:36:17.267Z,3.40
2023-02-12T11:38:55.906Z,3.11
2023-02-12T11:41:22.549Z,3.14
2023-02-12T11:43:50.889Z,3.17
2023-02-12T11:46:25.758Z,2.96
2023-02-12T11:48:55.572Z,3.04
2023-02-12T11:51:26.656Z,3.02
2023-02-12T11:53:56.325Z,2.61
2023-02-12T11:56:23.046Z,2.46
2023-02-12T11:58:53.314Z,2.70
2023-02-12T12:01:30.096Z,3.21
2023-02-12T12:04:05.620Z,3.48
2023-02-12T12:06:38.263Z,3.50
2023-02-12T12:09:16.862Z,3.60
2023-02-12T12:12:10.525Z,3.62
2023-02-12T12:15:04.363Z,2.97
2023-02-12T12:18:08.723Z,3.41
2023-02-12T12:20:47.521Z,2.55
2023-02-12T12:23:40.416Z,2.91
2023-02-12T12:26:13.706Z,3.17
2023-02-12T12:29:02.430Z,3.14
2023-02-12T12:31:53.899Z,2.79
2023-02-12T12:34:23.896Z,3.07
2023-02-12T12:37:05.464Z,3.23
2023-02-12T12:40:02.872Z,3.44
2023-02-12T12:42:29.525Z,3.30
2023-02-12T12:45:06.081Z,3.33
2023-02-12T12:47:53.583Z,3.05
2023-02-12T12:50:29.413Z,3.09
2023-02-12T12:52:55.948Z,3.09
2023-02-12T12:55:49.098Z,3.23
2023-02-12T12:58:18.830Z,3.48
2023-02-12T13:01:03.944Z,3.72
2023-02-12T13:04:05.708Z,3.23
2023-02-12T13:06:59.644Z,3.32
2023-02-12T13:09:38.501Z,3.29
2023-02-12T13:12:14.336Z,3.21
2023-02-12T13:14:43.751Z,3.19
2023-02-12T13:17:59.108Z,2.85
2023-02-12T13:20:31.726Z,3.00
2023-02-12T13:23:24.558Z,3.33
2023-02-12T13:25:57.591Z,3.44
2023-02-12T13:28:49.271Z,3.31
2023-02-12T13:31:32.881Z,3.49
2023-02-12T13:34:05.029Z,3.60
2023-02-12T13:36:34.872Z,3.48
2023-02-12T13:39:18.893Z,3.56
2023-02-12T13:41:57.326Z,3.65
2023-02-12T13:44:37.054Z,3.41
2023-02-12T13:47:12.128Z,3.39
2023-02-12T13:49:48.240Z,3.24
2023-02-12T13:52:36.415Z,3.31
2023-02-12T13:55:29.151Z,3.26
2023-02-12T13:58:14.467Z,3.37
2023-02-12T14:00:50.156Z,3.16
2023-02-12T14:03:16.966Z,2.68
2023-02-12T14:05:43.814Z,3.12
2023-02-12T14:08:34.822Z,3.12
2023-02-12T14:11:12.295Z,3.20
2023-02-12T14:13:56.644Z,3.15
2023-02-12T14:16:43.531Z,3.02
2023-02-12T14:19:51.218Z,2.94
2023-02-12T14:22:26.718Z,2.72
2023-02-12T14:24:55.632Z,2.67
2023-02-12T14:27:31.324Z,2.82
2023-02-12T14:30:07.176Z,2.69
2023-02-12T14:32:53.509Z,2.76
2023-02-12T14:35:36.697Z,2.39
2023-02-12T14:38:24.604Z,2.12
2023-02-12T14:40:53.648Z,2.55
2023-02-12T14:43:55.347Z,2.55
2023-02-12T14:46:26.225Z,2.60
2023-02-12T14:49:05.604Z,2.57
2023-02-12T14:52:35.449Z,2.54
2023-02-12T14:55:06.534Z,2.47
2023-02-12T14:57:40.085Z,2.47
2023-02-12T15:00:18.840Z,2.43
2023-02-12T15:02:51.468Z,2.37
2023-02-12T15:05:47.767Z,2.44
2023-02-12T15:08:40.194Z,2.35
2023-02-12T15:11:19.543Z,2.45
2023-02-12T15:13:57.119Z,2.17
2023-02-12T15:16:43.060Z,2.19
2023-02-12T15:19:37.415Z,2.11
2023-02-12T15:22:04.129Z,2.03
2023-02-12T15:24:30.757Z,2.14
2023-02-12T15:26:59.660Z,1.96
2023-02-12T15:29:33.453Z,2.16
2023-02-12T15:32:04.289Z,2.12
2023-02-12T15:34:33.805Z,1.47
2023-02-12T15:37:03.064Z,1.94
2023-02-12T15:39:57.691Z,1.97
2023-02-12T15:42:36.019Z,1.85
2023-02-12T15:45:08.205Z,1.73
2023-02-12T15:47:38.264Z,1.75
2023-02-12T15:50:05.475Z,1.82
2023-02-12T15:52:38.874Z,1.77
2023-02-12T15:55:06.652Z,1.74
2023-02-12T15:57:33.674Z,1.64
2023-02-12T16:00:11.286Z,1.63
2023-02-12T16:02:37.908Z,1.55
2023-02-12T16:05:05.829Z,1.77
2023-02-12T16:07:38.011Z,1.61
2023-02-12T16:10:06.355Z,1.67
2023-02-12T16:12:37.741Z,1.75
2023-02-12T16:15:05.509Z,1.74
2023-02-12T16:17:34.935Z,1.76
2023-02-12T16:20:04.502Z,1.71
2023-02-12T16:22:36.935Z,1.70
2023-02-12T16:25:13.412Z,1.42
2023-02-12T16:27:40.529Z,1.58
2023-02-12T16:30:33.144Z,1.71
2023-02-12T16:33:00.467Z,1.54
2023-02-12T16:35:32.977Z,1.09
2023-02-12T16:38:11.638Z,1.37
2023-02-12T16:40:40.088Z,1.21
2023-02-12T16:43:29.865Z,1.18
2023-02-12T16:46:05.191Z,1.19
2023-02-12T16:48:38.389Z,0.97
2023-02-12T16:51:06.367Z,0.99
2023-02-12T16:53:36.836Z,1.10
2023-02-12T16:56:05.616Z,1.00
2023-02-12T16:58:32.361Z,1.25
2023-02-12T17:01:02.613Z,1.36
2023-02-12T17:03:29.512Z,1.37
2023-02-12T17:05:56.699Z,1.34
2023-02-12T17:08:25.051Z,1.59
2023-02-12T17:10:52.517Z,1.74
2023-02-12T17:13:20.943Z,1.58
2023-02-12T17:15:54.600Z,1.40
2023-02-12T17:18:22.318Z,1.70
2023-02-12T17:20:56.465Z,1.63
2023-02-12T17:23:23.727Z,1.21
2023-02-12T17:25:50.599Z,1.56
2023-02-12T17:28:17.635Z,1.84
2023-02-12T17:30:47.363Z,2.13
2023-02-12T17:33:14.098Z,1.98
2023-02-12T17:35:40.937Z,2.18
2023-02-12T17:38:07.941Z,2.00
2023-02-12T17:40:38.548Z,1.97
2023-02-12T17:43:06.137Z,2.10
2023-02-12T17:45:33.130Z,1.97
2023-02-12T17:47:59.782Z,1.51
2023-02-12T17:50:26.835Z,1.48
2023-02-12T17:52:53.469Z,1.41
2023-02-12T17:55:25.154Z,1.57
2023-02-12T17:57:53.745Z,1.60
2023-02-12T18:00:24.228Z,1.24
2023-02-12T18:02:52.211Z,1.14
2023-02-12T18:05:21.729Z,1.30
2023-02-12T18:07:48.403Z,1.23
2023-02-12T18:10:15.532Z,1.35
2023-02-12T18:12:42.406Z,1.36
2023-02-12T18:15:10.124Z,1.35
2023-02-12T18:17:37.638Z,1.42
2023-02-12T18:20:04.688Z,1.41
2023-02-12T18:22:33.320Z,1.40
2023-02-12T18:24:59.935Z,1.39
2023-02-12T18:27:26.681Z,1.47
2023-02-12T18:29:53.488Z,1.43
2023-02-12T18:32:20.140Z,1.11
2023-02-12T18:34:46.805Z,1.47
2023-02-12T18:37:14.209Z,1.28
2023-02-12T18:39:41.192Z,1.39
2023-02-12T18:42:11.037Z,1.40
2023-02-12T18:44:37.876Z,1.38
2023-02-12T18:47:04.724Z,1.38
2023-02-12T18:49:31.535Z,1.35
2023-02-12T18:51:58.524Z,1.47
2023-02-12T18:54:25.201Z,1.69
2023-02-12T18:56:53.499Z,1.73
2023-02-12T18:59:21.113Z,1.61
2023-02-12T19:01:50.540Z,1.56
2023-02-12T19:04:19.617Z,1.76
2023-02-12T19:06:50.396Z,1.75
2023-02-12T19:09:20.276Z,1.74
2023-02-12T19:11:48.741Z,2.27
2023-02-12T19:14:17.034Z,2.16
2023-02-12T19:16:45.162Z,2.04
2023-02-12T19:19:13.228Z,2.26
2023-02-12T19:21:43.072Z,2.33
2023-02-12T19:24:12.377Z,2.18
2023-02-12T19:26:40.018Z,2.19
2023-02-12T19:29:07.418Z,2.10
2023-02-12T19:31:37.039Z,1.94
2023-02-12T19:34:14.630Z,1.93
2023-02-12T19:36:41.594Z,1.79
2023-02-12T19:39:08.790Z,1.56
2023-02-12T19:41:41.089Z,1.46
2023-02-12T19:44:18.892Z,1.33
2023-02-12T19:46:46.852Z,1.28
2023-02-12T19:49:16.968Z,1.07
2023-02-12T19:51:44.366Z,1.03
2023-02-12T19:54:13.254Z,0.86
2023-02-12T19:56:40.598Z,0.84
2023-02-12T19:59:07.965Z,0.72
2023-02-12T20:01:35.196Z,0.78
2023-02-12T20:04:02.941Z,0.69
2023-02-12T20:06:33.277Z,0.69
2023-02-12T20:08:59.936Z,0.64
2023-02-12T20:11:31.368Z,0.61
2023-02-12T20:13:58.481Z,0.63
2023-02-12T20:16:34.313Z,0.54
2023-02-12T20:19:05.788Z,0.63
2023-02-12T20:21:32.825Z,0.54
2023-02-12T20:24:01.777Z,0.46
2023-02-12T20:26:32.339Z,0.41
2023-02-12T20:29:01.646Z,0.01
2023-02-12T20:31:32.547Z,0.32
2023-02-12T20:34:02.260Z,0.12
2023-02-12T20:36:34.469Z,0.19
2023-02-12T20:39:01.402Z,0.14
2023-02-12T20:41:28.834Z,0.22
2023-02-12T20:43:59.494Z,0.22
2023-02-12T20:46:26.959Z,0.23
2023-02-12T20:48:55.123Z,0.09
2023-02-12T20:51:27.912Z,0.10
2023-02-12T20:53:55.550Z,0.22
2023-02-12T20:56:27.623Z,-0.30
2023-02-12T20:58:56.887Z,-0.11
2023-02-12T21:01:34.727Z,-0.06
2023-02-12T21:04:05.331Z,-0.12
2023-02-12T21:06:31.986Z,-0.12
2023-02-12T21:08:58.634Z,-0.20
2023-02-12T21:11:29.213Z,-0.15
2023-02-12T21:14:12.437Z,-0.35
2023-02-12T21:16:48.735Z,-0.35
2023-02-12T21:19:16.257Z,-0.38
2023-02-12T21:21:47.083Z,-0.49
2023-02-12T21:24:17.151Z,-0.32
2023-02-12T21:26:44.227Z,-0.31
2023-02-12T21:29:11.151Z,-0.46
2023-02-12T21:31:45.811Z,-0.68
2023-02-12T21:34:21.328Z,-0.93
2023-02-12T21:36:49.011Z,-0.79
2023-02-12T21:39:24.686Z,-0.63
2023-02-12T21:41:53.914Z,-0.73
2023-02-12T21:44:21.771Z,-0.81
2023-02-12T21:46:48.446Z,-1.04
2023-02-12T21:49:24.861Z,-0.84
2023-02-12T21:51:54.511Z,-1.33
2023-02-12T21:54:21.336Z,-1.32
2023-02-12T21:56:49.701Z,-1.01
2023-02-12T21:59:16.870Z,-1.22
2023-02-12T22:01:55.257Z,-1.05
2023-02-12T22:04:22.109Z,-1.06
2023-02-12T22:06:51.094Z,-1.31
2023-02-12T22:09:19.617Z,-1.23
2023-02-12T22:11:46.456Z,-1.21
2023-02-12T22:14:15.312Z,-1.28
2023-02-12T22:16:42.679Z,-1.25
2023-02-12T22:19:09.715Z,-1.37
2023-02-12T22:21:39.537Z,-1.35
2023-02-12T22:24:10.766Z,-1.59
2023-02-12T22:26:37.468Z,-1.56
2023-02-12T22:29:08.058Z,-1.38
2023-02-12T22:31:37.098Z,-1.48
2023-02-12T22:34:06.739Z,-1.46
2023-02-12T22:36:36.152Z,-1.48
2023-02-12T22:39:03.675Z,-1.53
2023-02-12T22:41:30.451Z,-1.70
2023-02-12T22:44:00.298Z,-1.56
2023-02-12T22:46:27.792Z,-1.57
2023-02-12T22:48:54.521Z,-1.53
2023-02-12T22:51:25.518Z,-1.56
2023-02-12T22:53:52.603Z,-1.75
2023-02-12T22:56:19.560Z,-1.60
2023-02-12T22:58:46.389Z,-1.57
2023-02-12T23:01:18.322Z,-1.54
2023-02-12T23:03:46.348Z,-1.65
2023-02-12T23:06:18.757Z,-2.05
2023-02-12T23:08:48.583Z,-1.58
2023-02-12T23:11:15.246Z,-1.70
2023-02-12T23:13:42.010Z,-1.72
2023-02-12T23:16:08.705Z,-1.77
2023-02-12T23:18:35.441Z,-1.89
2023-02-12T23:21:02.387Z,-2.12
2023-02-12T23:23:29.043Z,-1.90
2023-02-12T23:25:56.381Z,-1.68
2023-02-12T23:28:23.679Z,-2.01
2023-02-12T23:30:51.858Z,-2.13
2023-02-12T23:33:19.923Z,-1.86
2023-02-12T23:35:48.104Z,-1.82
2023-02-12T23:38:15.503Z,-1.98
2023-02-12T23:40:42.902Z,-1.77
2023-02-12T23:43:09.576Z,-1.74
2023-02-12T23:45:36.197Z,-1.77
2023-02-12T23:48:02.921Z,-1.83
2023-02-12T23:50:29.646Z,-1.87
2023-02-12T23:52:56.396Z,-1.68
2023-02-12T23:55:23.106Z,-1.68
2023-02-12T23:57:50.499Z,-1.67
